We bring you up!

Munich Aviation Company

Munich Aviation Company

Munich Aviation Company

Munich Aviation Company

Sie finden uns auch auf: Munich Aviation Company auf Instagram

Flugwetter Augsburg

[Quelle: ADDS]
METAR
EDMA 290620Z VRB02KT CAVOK 18/15 Q1017 =
EDMA 290500Z 2906/2915 16004KT 9999 SCT030 BECMG 2906/2908 25008KT
TAF
EDMA 290500Z 2906/2915 16004KT 9999 SCT030 BECMG 2906/2908 25008KT =

Kontakt